createdAt,value
2017-10-21T00:00:51.092Z,98.70
2017-10-21T00:03:18.959Z,98.90
2017-10-21T00:05:47.728Z,99.00
2017-10-21T00:08:15.229Z,99.00
2017-10-21T00:10:42.727Z,99.10
2017-10-21T00:13:10.211Z,99.20
2017-10-21T00:15:38.096Z,99.20
2017-10-21T00:18:05.571Z,99.20
2017-10-21T00:20:33.086Z,99.20
2017-10-21T00:23:00.968Z,99.00
2017-10-21T00:25:28.862Z,99.00
2017-10-21T00:27:56.351Z,99.00
2017-10-21T00:30:23.855Z,99.10
2017-10-21T00:32:51.357Z,99.20
2017-10-21T00:35:20.775Z,99.40
2017-10-21T00:37:49.159Z,99.30
2017-10-21T00:40:16.670Z,99.20
2017-10-21T00:42:45.495Z,99.00
2017-10-21T00:45:12.996Z,98.90
2017-10-21T00:47:41.806Z,99.00
2017-10-21T00:50:09.282Z,99.00
2017-10-21T00:52:37.775Z,99.00
2017-10-21T00:55:05.260Z,99.10
2017-10-21T00:57:32.756Z,99.00
2017-10-21T01:00:00.240Z,98.90
2017-10-21T01:02:27.752Z,98.90
2017-10-21T01:04:55.648Z,99.00
2017-10-21T01:07:23.123Z,99.00
2017-10-21T01:09:50.619Z,98.90
2017-10-21T01:12:18.100Z,99.00
2017-10-21T01:14:45.997Z,99.10
2017-10-21T01:17:13.474Z,99.10
2017-10-21T01:19:40.964Z,99.20
2017-10-21T01:22:08.440Z,99.30
2017-10-21T01:24:36.336Z,99.40
2017-10-21T01:27:03.838Z,99.40
2017-10-21T01:29:31.323Z,99.50
2017-10-21T01:31:59.195Z,99.60
2017-10-21T01:34:26.697Z,99.60
2017-10-21T01:36:54.175Z,99.60
2017-10-21T01:39:21.676Z,99.60
2017-10-21T01:41:49.143Z,99.60
2017-10-21T01:44:16.651Z,99.60
2017-10-21T01:46:44.152Z,99.70
2017-10-21T01:49:11.627Z,99.60
2017-10-21T01:51:39.112Z,99.40
2017-10-21T01:54:06.601Z,99.30
2017-10-21T01:56:34.480Z,99.10
2017-10-21T01:59:02.374Z,99.30
2017-10-21T02:01:29.852Z,99.30
2017-10-21T02:03:59.322Z,99.30
2017-10-21T02:06:26.798Z,99.50
2017-10-21T02:08:54.279Z,99.60
2017-10-21T02:11:21.774Z,99.70
2017-10-21T02:13:49.644Z,99.70
2017-10-21T02:16:17.545Z,99.60
2017-10-21T02:18:45.026Z,99.60
2017-10-21T02:21:13.371Z,99.50
2017-10-21T02:23:40.860Z,99.50
2017-10-21T02:26:09.491Z,99.40
2017-10-21T02:28:37.383Z,99.30
2017-10-21T02:31:04.867Z,99.30
2017-10-21T02:33:32.356Z,99.20
2017-10-21T02:35:59.828Z,99.20
2017-10-21T02:38:27.731Z,99.30
2017-10-21T02:40:56.156Z,99.30
2017-10-21T02:43:23.641Z,99.40
2017-10-21T02:45:51.537Z,99.20
2017-10-21T02:48:19.020Z,99.20
2017-10-21T02:50:46.516Z,99.30
2017-10-21T02:53:14.381Z,99.40
2017-10-21T02:55:44.235Z,99.40
2017-10-21T02:58:11.735Z,99.40
2017-10-21T03:00:39.238Z,99.40
2017-10-21T03:03:06.703Z,99.20
2017-10-21T03:05:34.233Z,99.40
2017-10-21T03:08:02.112Z,99.60
2017-10-21T03:10:29.621Z,99.60
2017-10-21T03:12:57.103Z,99.70
2017-10-21T03:15:25.000Z,99.70
2017-10-21T03:17:52.475Z,99.70
2017-10-21T03:20:19.957Z,99.70
2017-10-21T03:22:47.452Z,99.80
2017-10-21T03:25:15.332Z,99.50
2017-10-21T03:27:42.827Z,99.50
2017-10-21T03:30:10.305Z,99.20
2017-10-21T03:32:37.811Z,99.00
2017-10-21T03:35:05.292Z,98.90
2017-10-21T03:37:32.787Z,98.70
2017-10-21T03:40:02.208Z,98.40
2017-10-21T03:42:30.868Z,98.90
2017-10-21T03:44:58.380Z,98.90
2017-10-21T03:47:25.851Z,99.10
2017-10-21T03:49:53.354Z,99.20
2017-10-21T03:52:20.835Z,99.20
2017-10-21T03:54:48.702Z,99.30
2017-10-21T03:57:16.592Z,99.10
2017-10-21T03:59:44.063Z,99.10
2017-10-21T04:02:11.559Z,99.20
2017-10-21T04:04:39.031Z,99.30
2017-10-21T04:07:06.918Z,99.50
2017-10-21T04:09:34.395Z,99.50
2017-10-21T04:12:01.875Z,99.50
2017-10-21T04:14:29.375Z,99.60
2017-10-21T04:16:57.251Z,99.80
2017-10-21T04:19:24.744Z,99.80
2017-10-21T04:21:52.225Z,99.90
2017-10-21T04:24:19.732Z,99.90
2017-10-21T04:26:47.208Z,99.90
2017-10-21T04:29:14.703Z,99.90
2017-10-21T04:31:43.157Z,99.80
2017-10-21T04:34:10.652Z,99.80
2017-10-21T04:36:38.118Z,99.70
2017-10-21T04:39:06.007Z,99.90
2017-10-21T04:41:33.482Z,99.90
2017-10-21T04:44:00.978Z,99.90
2017-10-21T04:46:28.451Z,99.90
2017-10-21T04:48:55.946Z,99.90
2017-10-21T04:51:23.423Z,99.90
2017-10-21T04:53:50.927Z,99.90
2017-10-21T04:56:18.807Z,99.90
2017-10-21T04:58:46.692Z,99.90
2017-10-21T05:01:14.167Z,99.90
2017-10-21T05:03:43.568Z,99.90
2017-10-21T05:06:11.043Z,99.90
2017-10-21T05:08:38.557Z,99.90
2017-10-21T05:11:06.075Z,99.80
2017-10-21T05:13:33.579Z,99.60
2017-10-21T05:16:01.060Z,99.60
2017-10-21T05:18:28.535Z,99.60
2017-10-21T05:20:57.286Z,99.40
2017-10-21T05:23:25.710Z,99.40
2017-10-21T05:25:53.199Z,99.50
2017-10-21T05:28:21.076Z,99.60
2017-10-21T05:30:48.968Z,99.60
2017-10-21T05:33:16.474Z,99.60
2017-10-21T05:35:43.947Z,99.60
2017-10-21T05:38:11.845Z,99.50
2017-10-21T05:40:39.316Z,99.50
2017-10-21T05:43:06.915Z,99.40
2017-10-21T05:45:34.780Z,99.50
2017-10-21T05:48:02.261Z,99.50
2017-10-21T05:50:30.147Z,99.40
2017-10-21T05:52:57.648Z,99.40
2017-10-21T05:55:25.119Z,99.20
2017-10-21T05:57:52.619Z,99.10
2017-10-21T06:00:20.119Z,99.20
2017-10-21T06:02:47.615Z,99.30
2017-10-21T06:05:17.336Z,99.60
2017-10-21T06:07:46.863Z,99.80
2017-10-21T06:10:14.342Z,99.80
2017-10-21T06:12:41.840Z,99.90
2017-10-21T06:15:09.713Z,99.90
2017-10-21T06:17:41.231Z,99.90
2017-10-21T06:20:08.735Z,99.90
2017-10-21T06:22:37.599Z,99.90
2017-10-21T06:25:05.095Z,99.90
2017-10-21T06:27:32.587Z,99.90
2017-10-21T06:30:05.449Z,99.90
2017-10-21T06:32:33.211Z,99.90
2017-10-21T06:35:00.692Z,99.90
2017-10-21T06:37:28.205Z,99.90
2017-10-21T06:39:55.707Z,99.90
2017-10-21T06:42:23.199Z,99.90
2017-10-21T06:44:50.677Z,99.80
2017-10-21T06:47:18.572Z,99.60
2017-10-21T06:49:47.193Z,99.60
2017-10-21T06:52:14.693Z,99.40
2017-10-21T06:54:42.171Z,99.30
2017-10-21T06:57:09.648Z,99.40
2017-10-21T06:59:37.139Z,99.40
2017-10-21T07:02:05.043Z,99.60
2017-10-21T07:04:32.616Z,99.60
2017-10-21T07:07:00.112Z,99.70
2017-10-21T07:09:27.608Z,99.80
2017-10-21T07:11:55.082Z,99.90
2017-10-21T07:14:22.569Z,99.90
2017-10-21T07:16:50.084Z,99.70
2017-10-21T07:19:17.625Z,99.30
2017-10-21T07:21:45.526Z,98.60
2017-10-21T07:24:13.008Z,98.60
2017-10-21T07:26:42.427Z,98.20
2017-10-21T07:29:09.907Z,97.60
2017-10-21T07:31:37.840Z,97.10
2017-10-21T07:34:05.739Z,97.10
2017-10-21T07:36:37.674Z,97.70
2017-10-21T07:39:05.176Z,97.80
2017-10-21T07:41:33.047Z,97.60
2017-10-21T07:44:00.551Z,97.60
2017-10-21T07:46:28.983Z,97.20
2017-10-21T07:48:56.496Z,97.30
2017-10-21T07:51:23.986Z,97.40
2017-10-21T07:53:53.843Z,97.30
2017-10-21T07:56:21.334Z,97.30
2017-10-21T07:58:48.850Z,97.50
2017-10-21T08:01:16.331Z,97.60
2017-10-21T08:03:43.814Z,97.50
2017-10-21T08:06:11.310Z,96.40
2017-10-21T08:08:40.035Z,96.00
2017-10-21T08:11:07.534Z,96.20
2017-10-21T08:13:35.414Z,97.10
2017-10-21T08:16:03.315Z,97.30
2017-10-21T08:18:30.833Z,97.30
2017-10-21T08:20:58.713Z,96.90
2017-10-21T08:23:26.223Z,96.90
2017-10-21T08:25:53.717Z,96.80
2017-10-21T08:28:21.632Z,96.70
2017-10-21T08:30:49.119Z,96.70
2017-10-21T08:33:16.604Z,96.60
2017-10-21T08:35:44.130Z,96.70
2017-10-21T08:38:12.566Z,96.90
2017-10-21T08:40:40.075Z,96.80
2017-10-21T08:43:07.597Z,96.40
2017-10-21T08:45:35.112Z,95.80
2017-10-21T08:48:02.996Z,95.40
2017-10-21T08:50:30.495Z,95.40
2017-10-21T08:52:58.007Z,95.40
2017-10-21T08:55:25.500Z,95.60
2017-10-21T08:57:53.008Z,95.40
2017-10-21T09:00:22.254Z,94.80
2017-10-21T09:02:49.763Z,94.80
2017-10-21T09:05:18.597Z,95.00
2017-10-21T09:07:46.111Z,95.00
2017-10-21T09:10:14.935Z,95.00
2017-10-21T09:12:42.439Z,95.00
2017-10-21T09:15:09.928Z,94.20
2017-10-21T09:17:37.436Z,94.40
2017-10-21T09:20:04.923Z,94.10
2017-10-21T09:22:32.969Z,93.60
2017-10-21T09:25:00.466Z,93.70
2017-10-21T09:27:28.373Z,93.40
2017-10-21T09:29:55.867Z,93.40
2017-10-21T09:32:23.355Z,93.60
2017-10-21T09:34:51.270Z,93.20
2017-10-21T09:37:18.780Z,93.20
2017-10-21T09:39:46.276Z,92.70
2017-10-21T09:42:13.786Z,92.90
2017-10-21T09:44:41.696Z,92.40
2017-10-21T09:47:09.196Z,92.40
2017-10-21T09:49:36.693Z,92.20
2017-10-21T09:52:04.215Z,92.10
2017-10-21T09:54:31.709Z,91.80
2017-10-21T09:56:59.219Z,90.80
2017-10-21T09:59:26.712Z,90.80
2017-10-21T10:01:54.220Z,90.00
2017-10-21T10:04:21.708Z,90.10
2017-10-21T10:06:49.223Z,90.10
2017-10-21T10:09:16.708Z,90.80
2017-10-21T10:11:44.219Z,91.30
2017-10-21T10:14:11.704Z,91.30
2017-10-21T10:16:41.186Z,91.30
2017-10-21T10:19:08.679Z,90.70
2017-10-21T10:21:36.188Z,90.80
2017-10-21T10:24:05.579Z,91.90
2017-10-21T10:26:33.484Z,92.90
2017-10-21T10:29:01.895Z,92.90
2017-10-21T10:31:29.390Z,93.50
2017-10-21T10:33:57.288Z,93.40
2017-10-21T10:36:24.789Z,93.40
2017-10-21T10:38:54.243Z,93.30
2017-10-21T10:41:21.747Z,93.70
2017-10-21T10:43:50.400Z,93.30
2017-10-21T10:46:17.899Z,92.90
2017-10-21T10:48:45.397Z,93.00
2017-10-21T10:51:14.426Z,93.60
2017-10-21T10:53:42.847Z,93.10
2017-10-21T10:56:10.870Z,92.80
2017-10-21T10:58:38.369Z,92.80
2017-10-21T11:01:06.276Z,92.80
2017-10-21T11:03:33.756Z,92.80
2017-10-21T11:06:01.272Z,92.30
2017-10-21T11:08:28.755Z,91.30
2017-10-21T11:10:56.235Z,90.80
2017-10-21T11:13:23.735Z,90.70
2017-10-21T11:15:51.624Z,91.40
2017-10-21T11:18:19.130Z,91.40
2017-10-21T11:20:46.611Z,91.90
2017-10-21T11:23:14.508Z,91.80
2017-10-21T11:25:42.004Z,91.70
2017-10-21T11:28:09.507Z,92.10
2017-10-21T11:30:36.992Z,91.80
2017-10-21T11:33:04.495Z,91.80
2017-10-21T11:35:31.986Z,92.00
2017-10-21T11:37:59.492Z,92.30
2017-10-21T11:40:26.971Z,92.10
2017-10-21T11:42:55.444Z,91.80
2017-10-21T11:45:23.718Z,91.90
2017-10-21T11:47:51.191Z,92.20
2017-10-21T11:50:18.696Z,92.20
2017-10-21T11:52:46.254Z,92.40
2017-10-21T11:55:13.743Z,92.10
2017-10-21T11:57:41.251Z,91.70
2017-10-21T12:00:09.710Z,91.30
2017-10-21T12:02:38.311Z,92.00
2017-10-21T12:05:05.817Z,92.00
2017-10-21T12:07:33.328Z,91.90
2017-10-21T12:10:00.804Z,91.60
2017-10-21T12:12:28.303Z,92.00
2017-10-21T12:14:55.803Z,91.80
2017-10-21T12:17:24.234Z,92.10
2017-10-21T12:19:51.743Z,92.20
2017-10-21T12:22:19.227Z,92.30
2017-10-21T12:24:46.708Z,92.20
2017-10-21T12:27:14.212Z,92.20
2017-10-21T12:29:42.082Z,92.00
2017-10-21T12:32:09.588Z,92.00
2017-10-21T12:34:37.064Z,91.90
2017-10-21T12:37:04.549Z,91.50
2017-10-21T12:39:32.448Z,91.00
2017-10-21T12:42:00.514Z,91.00
2017-10-21T12:44:28.019Z,90.40
2017-10-21T12:46:55.496Z,90.50
2017-10-21T12:49:23.384Z,89.90
2017-10-21T12:51:51.644Z,89.90
2017-10-21T12:54:20.453Z,90.50
2017-10-21T12:56:47.958Z,90.50
2017-10-21T12:59:15.451Z,89.80
2017-10-21T13:01:43.347Z,90.80
2017-10-21T13:04:10.835Z,90.90
2017-10-21T13:06:40.319Z,91.10
2017-10-21T13:09:08.768Z,91.30
2017-10-21T13:11:36.258Z,91.90
2017-10-21T13:14:03.747Z,91.50
2017-10-21T13:16:31.252Z,91.90
2017-10-21T13:18:58.744Z,91.70
2017-10-21T13:21:26.244Z,91.50
2017-10-21T13:23:54.117Z,92.00
2017-10-21T13:26:21.652Z,92.00
2017-10-21T13:28:50.037Z,91.90
2017-10-21T13:31:17.947Z,92.00
2017-10-21T13:33:45.434Z,92.00
2017-10-21T13:36:12.931Z,91.80
2017-10-21T13:38:41.415Z,92.10
2017-10-21T13:41:09.314Z,92.00
2017-10-21T13:43:36.799Z,92.00
2017-10-21T13:46:04.279Z,92.00
2017-10-21T13:48:32.102Z,91.90
2017-10-21T13:50:59.580Z,91.70
2017-10-21T13:53:27.091Z,92.10
2017-10-21T13:55:54.580Z,91.30
2017-10-21T13:58:22.083Z,91.20
2017-10-21T14:00:49.563Z,91.20
2017-10-21T14:03:17.962Z,91.20
2017-10-21T14:05:45.463Z,91.40
2017-10-21T14:08:12.945Z,91.50
2017-10-21T14:10:40.890Z,91.60
2017-10-21T14:13:08.367Z,91.60
2017-10-21T14:15:36.242Z,91.50
2017-10-21T14:18:04.176Z,91.60
2017-10-21T14:20:32.625Z,91.60
2017-10-21T14:23:00.130Z,91.80
2017-10-21T14:25:27.639Z,92.00
2017-10-21T14:27:55.139Z,92.00
2017-10-21T14:30:22.630Z,92.00
2017-10-21T14:32:50.503Z,91.60
2017-10-21T14:35:18.005Z,91.60
2017-10-21T14:37:45.492Z,91.90
2017-10-21T14:40:13.396Z,92.40
2017-10-21T14:42:40.888Z,92.50
2017-10-21T14:45:09.339Z,92.20
2017-10-21T14:47:36.819Z,92.30
2017-10-21T14:50:04.308Z,92.60
2017-10-21T14:52:31.806Z,92.80
2017-10-21T14:54:59.292Z,93.10
2017-10-21T14:57:26.807Z,93.10
2017-10-21T14:59:54.710Z,93.30
2017-10-21T15:02:23.151Z,93.30
2017-10-21T15:04:52.018Z,93.60
2017-10-21T15:07:19.501Z,93.60
2017-10-21T15:09:47.012Z,93.20
2017-10-21T15:12:15.439Z,93.30
2017-10-21T15:14:43.319Z,93.20
2017-10-21T15:17:10.823Z,93.20
2017-10-21T15:19:38.341Z,93.00
2017-10-21T15:22:05.851Z,93.30
2017-10-21T15:24:33.324Z,92.20
2017-10-21T15:27:02.167Z,91.00
2017-10-21T15:29:29.675Z,91.00
2017-10-21T15:31:57.568Z,90.70
2017-10-21T15:34:27.024Z,90.70
2017-10-21T15:36:54.504Z,90.30
2017-10-21T15:39:22.415Z,90.60
2017-10-21T15:41:49.895Z,90.60
2017-10-21T15:44:18.370Z,91.10
2017-10-21T15:46:45.856Z,91.30
2017-10-21T15:49:13.365Z,91.40
2017-10-21T15:51:40.891Z,91.30
2017-10-21T15:54:08.384Z,91.80
2017-10-21T15:56:35.863Z,91.90
2017-10-21T15:59:03.361Z,91.80
2017-10-21T16:01:31.264Z,92.40
2017-10-21T16:03:58.747Z,92.40
2017-10-21T16:06:26.255Z,92.20
2017-10-21T16:08:53.752Z,92.40
2017-10-21T16:11:21.247Z,92.60
2017-10-21T16:13:48.733Z,92.80
2017-10-21T16:16:16.235Z,93.00
2017-10-21T16:18:43.731Z,93.10
2017-10-21T16:21:11.643Z,93.20
2017-10-21T16:23:39.169Z,93.20
2017-10-21T16:26:07.043Z,93.60
2017-10-21T16:28:34.519Z,93.60
2017-10-21T16:31:02.033Z,93.40
2017-10-21T16:33:29.512Z,93.60
2017-10-21T16:35:57.409Z,93.60
2017-10-21T16:38:25.796Z,93.60
2017-10-21T16:40:53.311Z,93.70
2017-10-21T16:43:21.188Z,93.30
2017-10-21T16:45:48.684Z,93.30
2017-10-21T16:48:17.071Z,93.00
2017-10-21T16:50:44.582Z,93.10
2017-10-21T16:53:12.065Z,93.30
2017-10-21T16:55:39.580Z,93.30
2017-10-21T16:58:07.475Z,93.20
2017-10-21T17:00:34.976Z,93.20
2017-10-21T17:03:02.475Z,93.20
2017-10-21T17:05:30.390Z,93.30
2017-10-21T17:07:57.868Z,93.30
2017-10-21T17:10:25.387Z,93.30
2017-10-21T17:12:52.872Z,94.20
2017-10-21T17:15:21.261Z,94.20
2017-10-21T17:17:48.763Z,94.50
2017-10-21T17:20:17.221Z,94.90
2017-10-21T17:22:44.744Z,95.70
2017-10-21T17:25:12.230Z,96.00
2017-10-21T17:27:39.817Z,96.60
2017-10-21T17:30:07.310Z,97.20
2017-10-21T17:32:34.798Z,97.50
2017-10-21T17:35:02.309Z,97.30
2017-10-21T17:37:29.797Z,97.40
2017-10-21T17:39:59.259Z,97.40
2017-10-21T17:42:26.746Z,97.70
2017-10-21T17:44:54.235Z,98.00
2017-10-21T17:47:22.657Z,98.00
2017-10-21T17:49:50.147Z,98.50
2017-10-21T17:52:17.656Z,98.60
2017-10-21T17:54:45.155Z,98.70
2017-10-21T17:57:12.680Z,98.80
2017-10-21T17:59:40.171Z,98.80
2017-10-21T18:02:07.664Z,98.90
2017-10-21T18:04:35.168Z,99.10
2017-10-21T18:07:02.660Z,99.10
2017-10-21T18:09:30.167Z,99.20
2017-10-21T18:11:57.657Z,99.10
2017-10-21T18:14:25.164Z,99.20
2017-10-21T18:16:53.059Z,99.60
2017-10-21T18:19:20.579Z,99.50
2017-10-21T18:21:48.064Z,99.60
2017-10-21T18:24:15.575Z,99.40
2017-10-21T18:26:43.068Z,99.10
2017-10-21T18:29:10.974Z,98.80
2017-10-21T18:31:38.455Z,98.80
2017-10-21T18:34:05.965Z,98.40
2017-10-21T18:36:33.475Z,98.40
2017-10-21T18:39:00.966Z,98.40
2017-10-21T18:41:28.851Z,98.60
2017-10-21T18:43:56.368Z,98.60
2017-10-21T18:46:23.861Z,98.40
2017-10-21T18:48:51.766Z,98.70
2017-10-21T18:51:19.264Z,98.70
2017-10-21T18:53:46.771Z,98.80
2017-10-21T18:56:14.249Z,98.70
2017-10-21T18:58:41.745Z,98.60
2017-10-21T19:01:09.643Z,99.00
2017-10-21T19:03:37.139Z,99.00
2017-10-21T19:06:04.647Z,99.10
2017-10-21T19:08:32.156Z,99.20
2017-10-21T19:10:59.651Z,99.20
2017-10-21T19:13:27.540Z,99.20
2017-10-21T19:15:55.039Z,99.10
2017-10-21T19:18:22.528Z,99.20
2017-10-21T19:20:51.319Z,99.10
2017-10-21T19:23:18.856Z,99.10
2017-10-21T19:25:46.348Z,99.20
2017-10-21T19:28:14.257Z,98.80
2017-10-21T19:30:41.747Z,98.80
2017-10-21T19:33:11.196Z,98.60
2017-10-21T19:35:38.679Z,98.50
2017-10-21T19:38:06.170Z,98.30
2017-10-21T19:40:33.680Z,98.90
2017-10-21T19:43:01.174Z,99.10
2017-10-21T19:45:28.677Z,99.00
2017-10-21T19:47:56.166Z,98.90
2017-10-21T19:50:23.670Z,99.00
2017-10-21T19:52:51.563Z,99.20
2017-10-21T19:55:19.069Z,99.20
2017-10-21T19:57:46.560Z,99.20
2017-10-21T20:00:14.462Z,99.10
2017-10-21T20:02:41.958Z,99.10
2017-10-21T20:05:09.467Z,99.10
2017-10-21T20:07:36.952Z,99.00
2017-10-21T20:10:04.456Z,98.60
2017-10-21T20:12:32.371Z,98.60
2017-10-21T20:14:59.859Z,98.60
2017-10-21T20:17:27.356Z,98.60
2017-10-21T20:19:54.859Z,98.50
2017-10-21T20:22:22.350Z,98.90
2017-10-21T20:24:49.863Z,98.20
2017-10-21T20:27:17.344Z,98.50
2017-10-21T20:29:44.827Z,98.40
2017-10-21T20:32:12.743Z,98.20
2017-10-21T20:34:40.243Z,98.20
2017-10-21T20:37:07.854Z,98.40
2017-10-21T20:39:35.347Z,98.30
2017-10-21T20:42:02.853Z,98.20
2017-10-21T20:44:30.350Z,98.20
2017-10-21T20:46:58.787Z,98.20
2017-10-21T20:49:26.294Z,98.10
2017-10-21T20:51:53.779Z,98.40
2017-10-21T20:54:21.690Z,98.60
2017-10-21T20:56:50.137Z,98.60
2017-10-21T20:59:19.981Z,98.40
2017-10-21T21:01:47.476Z,98.40
2017-10-21T21:04:14.979Z,98.80
2017-10-21T21:06:42.468Z,98.80
2017-10-21T21:09:09.980Z,98.80
2017-10-21T21:11:37.863Z,98.90
2017-10-21T21:14:05.372Z,98.90
2017-10-21T21:16:32.868Z,99.00
2017-10-21T21:19:00.772Z,99.30
2017-10-21T21:21:28.266Z,99.30
2017-10-21T21:23:55.771Z,99.20
2017-10-21T21:26:23.267Z,99.20
2017-10-21T21:28:50.775Z,99.00
2017-10-21T21:31:18.666Z,99.20
2017-10-21T21:33:46.153Z,99.20
2017-10-21T21:36:13.659Z,99.20
2017-10-21T21:38:41.148Z,99.20
2017-10-21T21:41:08.654Z,99.30
2017-10-21T21:43:37.083Z,99.20
2017-10-21T21:46:04.572Z,99.20
2017-10-21T21:48:32.083Z,99.20
2017-10-21T21:51:00.521Z,99.30
2017-10-21T21:53:28.927Z,99.30
2017-10-21T21:55:56.817Z,99.00
2017-10-21T21:58:24.335Z,99.00
2017-10-21T22:00:51.816Z,99.30
2017-10-21T22:03:19.295Z,99.40
2017-10-21T22:05:46.804Z,99.50
2017-10-21T22:08:14.316Z,99.50
2017-10-21T22:10:42.701Z,99.50
2017-10-21T22:13:10.207Z,99.50
2017-10-21T22:15:38.125Z,99.40
2017-10-21T22:18:05.631Z,99.40
2017-10-21T22:20:33.519Z,99.30
2017-10-21T22:23:01.400Z,99.30
2017-10-21T22:25:28.926Z,99.30
2017-10-21T22:27:56.843Z,99.50
2017-10-21T22:30:24.356Z,99.50
2017-10-21T22:32:52.254Z,99.50
2017-10-21T22:35:19.776Z,99.50
2017-10-21T22:37:47.268Z,99.60
2017-10-21T22:40:14.789Z,99.60
2017-10-21T22:42:42.273Z,99.60
2017-10-21T22:45:09.776Z,99.60
2017-10-21T22:47:37.268Z,99.60
2017-10-21T22:50:04.792Z,99.70
2017-10-21T22:52:32.301Z,99.50
2017-10-21T22:54:59.825Z,99.60
2017-10-21T22:57:27.348Z,99.60
2017-10-21T22:59:54.902Z,99.80
2017-10-21T23:02:22.409Z,99.90
2017-10-21T23:04:49.933Z,99.90
2017-10-21T23:07:17.547Z,99.90
2017-10-21T23:09:45.455Z,99.90
2017-10-21T23:12:12.982Z,99.90
2017-10-21T23:14:40.883Z,99.90
2017-10-21T23:17:09.460Z,99.90
2017-10-21T23:19:36.988Z,99.90
2017-10-21T23:22:04.877Z,99.90
2017-10-21T23:24:33.221Z,99.90
2017-10-21T23:27:00.772Z,99.90
2017-10-21T23:29:28.305Z,99.90
2017-10-21T23:31:55.824Z,99.90
2017-10-21T23:34:25.306Z,99.90
2017-10-21T23:36:53.196Z,99.90
2017-10-21T23:39:20.732Z,99.90
2017-10-21T23:41:48.638Z,99.90
2017-10-21T23:44:16.150Z,99.90
2017-10-21T23:46:44.036Z,99.90
2017-10-21T23:49:11.967Z,99.90
2017-10-21T23:51:40.419Z,99.90
2017-10-21T23:54:07.933Z,99.90
2017-10-21T23:56:35.852Z,99.90
2017-10-21T23:59:03.398Z,99.90
